sensor_id;sensor_type;location;lat;lon;timestamp;P1;durP1;ratioP1;P2;durP2;ratioP2
65896;SDS011;52677;50.898;10.854;2023-05-07T00:01:49;37.03;;;21.17;;
65896;SDS011;52677;50.898;10.854;2023-05-07T00:03:49;37.78;;;21.15;;
65896;SDS011;52677;50.898;10.854;2023-05-07T00:05:50;37.03;;;21.52;;
65896;SDS011;52677;50.898;10.854;2023-05-07T00:07:51;34.60;;;20.20;;
65896;SDS011;52677;50.898;10.854;2023-05-07T00:09:52;37.83;;;20.77;;
65896;SDS011;52677;50.898;10.854;2023-05-07T00:11:52;43.05;;;23.15;;
65896;SDS011;52677;50.898;10.854;2023-05-07T00:13:53;36.03;;;21.58;;
65896;SDS011;52677;50.898;10.854;2023-05-07T00:15:53;35.20;;;21.20;;
65896;SDS011;52677;50.898;10.854;2023-05-07T00:17:54;39.53;;;22.15;;
65896;SDS011;52677;50.898;10.854;2023-05-07T00:19:54;40.63;;;23.30;;
65896;SDS011;52677;50.898;10.854;2023-05-07T00:21:54;38.45;;;21.67;;
65896;SDS011;52677;50.898;10.854;2023-05-07T00:23:55;41.85;;;22.35;;
65896;SDS011;52677;50.898;10.854;2023-05-07T00:25:56;42.90;;;23.08;;
65896;SDS011;52677;50.898;10.854;2023-05-07T00:27:56;37.53;;;20.88;;
65896;SDS011;52677;50.898;10.854;2023-05-07T00:30:02;41.33;;;22.35;;
65896;SDS011;52677;50.898;10.854;2023-05-07T00:32:03;43.55;;;23.20;;
65896;SDS011;52677;50.898;10.854;2023-05-07T00:34:03;39.10;;;22.98;;
65896;SDS011;52677;50.898;10.854;2023-05-07T00:36:04;37.15;;;21.25;;
65896;SDS011;52677;50.898;10.854;2023-05-07T00:38:04;39.83;;;22.42;;
65896;SDS011;52677;50.898;10.854;2023-05-07T00:40:05;42.72;;;22.33;;
65896;SDS011;52677;50.898;10.854;2023-05-07T00:42:07;36.80;;;21.95;;
65896;SDS011;52677;50.898;10.854;2023-05-07T00:44:08;38.28;;;21.75;;
65896;SDS011;52677;50.898;10.854;2023-05-07T00:46:08;40.53;;;21.15;;
65896;SDS011;52677;50.898;10.854;2023-05-07T00:48:10;39.38;;;22.17;;
65896;SDS011;52677;50.898;10.854;2023-05-07T00:50:10;38.95;;;22.08;;
65896;SDS011;52677;50.898;10.854;2023-05-07T00:52:15;42.60;;;23.33;;
65896;SDS011;52677;50.898;10.854;2023-05-07T00:54:17;36.78;;;21.73;;
65896;SDS011;52677;50.898;10.854;2023-05-07T00:56:17;45.20;;;23.20;;
65896;SDS011;52677;50.898;10.854;2023-05-07T00:58:18;41.35;;;22.63;;
65896;SDS011;52677;50.898;10.854;2023-05-07T01:00:19;38.10;;;22.83;;
65896;SDS011;52677;50.898;10.854;2023-05-07T01:02:21;39.20;;;21.60;;
65896;SDS011;52677;50.898;10.854;2023-05-07T01:04:21;38.50;;;22.17;;
65896;SDS011;52677;50.898;10.854;2023-05-07T01:06:22;41.10;;;22.40;;
65896;SDS011;52677;50.898;10.854;2023-05-07T01:08:25;42.03;;;23.10;;
65896;SDS011;52677;50.898;10.854;2023-05-07T01:10:29;45.00;;;23.00;;
65896;SDS011;52677;50.898;10.854;2023-05-07T01:12:33;46.05;;;24.80;;
65896;SDS011;52677;50.898;10.854;2023-05-07T01:14:35;40.88;;;22.88;;
65896;SDS011;52677;50.898;10.854;2023-05-07T01:16:36;65.47;;;23.80;;
65896;SDS011;52677;50.898;10.854;2023-05-07T01:18:36;40.75;;;22.73;;
65896;SDS011;52677;50.898;10.854;2023-05-07T01:20:37;40.78;;;22.73;;
65896;SDS011;52677;50.898;10.854;2023-05-07T01:22:38;43.13;;;22.48;;
65896;SDS011;52677;50.898;10.854;2023-05-07T01:24:38;46.53;;;25.25;;
65896;SDS011;52677;50.898;10.854;2023-05-07T01:26:39;47.50;;;24.98;;
65896;SDS011;52677;50.898;10.854;2023-05-07T01:28:39;43.35;;;22.92;;
65896;SDS011;52677;50.898;10.854;2023-05-07T01:30:40;45.15;;;23.05;;
65896;SDS011;52677;50.898;10.854;2023-05-07T01:32:47;40.30;;;21.48;;
65896;SDS011;52677;50.898;10.854;2023-05-07T01:34:50;43.22;;;22.30;;
65896;SDS011;52677;50.898;10.854;2023-05-07T01:36:53;40.53;;;23.98;;
65896;SDS011;52677;50.898;10.854;2023-05-07T01:38:55;48.90;;;24.50;;
65896;SDS011;52677;50.898;10.854;2023-05-07T01:40:58;43.78;;;24.50;;
65896;SDS011;52677;50.898;10.854;2023-05-07T01:42:58;47.28;;;24.33;;
65896;SDS011;52677;50.898;10.854;2023-05-07T01:44:59;42.90;;;23.63;;
65896;SDS011;52677;50.898;10.854;2023-05-07T01:47:00;44.03;;;23.30;;
65896;SDS011;52677;50.898;10.854;2023-05-07T01:49:01;45.17;;;23.37;;
65896;SDS011;52677;50.898;10.854;2023-05-07T01:51:02;47.05;;;23.55;;
65896;SDS011;52677;50.898;10.854;2023-05-07T01:53:03;51.95;;;23.52;;
65896;SDS011;52677;50.898;10.854;2023-05-07T01:55:03;49.05;;;22.77;;
65896;SDS011;52677;50.898;10.854;2023-05-07T01:57:05;44.72;;;24.15;;
65896;SDS011;52677;50.898;10.854;2023-05-07T01:59:05;50.47;;;24.73;;
65896;SDS011;52677;50.898;10.854;2023-05-07T02:01:05;48.70;;;22.67;;
65896;SDS011;52677;50.898;10.854;2023-05-07T02:03:06;40.72;;;21.70;;
65896;SDS011;52677;50.898;10.854;2023-05-07T02:05:06;44.33;;;23.02;;
65896;SDS011;52677;50.898;10.854;2023-05-07T02:07:07;46.95;;;22.92;;
65896;SDS011;52677;50.898;10.854;2023-05-07T02:09:07;44.55;;;22.20;;
65896;SDS011;52677;50.898;10.854;2023-05-07T02:11:08;52.25;;;24.90;;
65896;SDS011;52677;50.898;10.854;2023-05-07T02:13:09;45.75;;;22.90;;
65896;SDS011;52677;50.898;10.854;2023-05-07T02:15:09;51.72;;;23.73;;
65896;SDS011;52677;50.898;10.854;2023-05-07T02:17:10;47.22;;;22.85;;
65896;SDS011;52677;50.898;10.854;2023-05-07T02:19:10;47.90;;;22.52;;
65896;SDS011;52677;50.898;10.854;2023-05-07T02:21:11;51.22;;;22.33;;
65896;SDS011;52677;50.898;10.854;2023-05-07T02:23:11;53.22;;;23.58;;
65896;SDS011;52677;50.898;10.854;2023-05-07T02:25:11;50.58;;;23.98;;
65896;SDS011;52677;50.898;10.854;2023-05-07T02:27:12;49.33;;;24.23;;
65896;SDS011;52677;50.898;10.854;2023-05-07T02:29:12;49.15;;;22.92;;
65896;SDS011;52677;50.898;10.854;2023-05-07T02:31:12;48.22;;;24.13;;
65896;SDS011;52677;50.898;10.854;2023-05-07T02:33:13;47.72;;;22.75;;
65896;SDS011;52677;50.898;10.854;2023-05-07T02:35:13;49.88;;;23.48;;
65896;SDS011;52677;50.898;10.854;2023-05-07T02:37:14;49.15;;;23.75;;
65896;SDS011;52677;50.898;10.854;2023-05-07T02:39:14;47.75;;;23.35;;
65896;SDS011;52677;50.898;10.854;2023-05-07T02:41:16;48.67;;;23.23;;
65896;SDS011;52677;50.898;10.854;2023-05-07T02:43:17;47.38;;;22.27;;
65896;SDS011;52677;50.898;10.854;2023-05-07T02:45:17;52.05;;;23.98;;
65896;SDS011;52677;50.898;10.854;2023-05-07T02:47:18;42.55;;;23.10;;
65896;SDS011;52677;50.898;10.854;2023-05-07T02:49:18;47.47;;;22.83;;
65896;SDS011;52677;50.898;10.854;2023-05-07T02:51:19;48.28;;;23.05;;
65896;SDS011;52677;50.898;10.854;2023-05-07T02:53:20;44.35;;;21.73;;
65896;SDS011;52677;50.898;10.854;2023-05-07T02:55:21;41.17;;;21.42;;
65896;SDS011;52677;50.898;10.854;2023-05-07T02:57:21;50.42;;;23.58;;
65896;SDS011;52677;50.898;10.854;2023-05-07T02:59:21;43.65;;;22.15;;
65896;SDS011;52677;50.898;10.854;2023-05-07T03:01:22;48.47;;;22.27;;
65896;SDS011;52677;50.898;10.854;2023-05-07T03:03:22;43.92;;;22.42;;
65896;SDS011;52677;50.898;10.854;2023-05-07T03:05:22;43.53;;;22.52;;
65896;SDS011;52677;50.898;10.854;2023-05-07T03:07:23;46.05;;;21.25;;
65896;SDS011;52677;50.898;10.854;2023-05-07T03:09:23;47.47;;;22.17;;
65896;SDS011;52677;50.898;10.854;2023-05-07T03:11:23;49.67;;;22.55;;
65896;SDS011;52677;50.898;10.854;2023-05-07T03:13:24;41.53;;;20.50;;
65896;SDS011;52677;50.898;10.854;2023-05-07T03:15:24;49.85;;;23.33;;
65896;SDS011;52677;50.898;10.854;2023-05-07T03:17:25;45.30;;;22.17;;
65896;SDS011;52677;50.898;10.854;2023-05-07T03:19:25;44.92;;;22.20;;
65896;SDS011;52677;50.898;10.854;2023-05-07T03:21:25;46.25;;;21.63;;
65896;SDS011;52677;50.898;10.854;2023-05-07T03:23:26;48.72;;;22.45;;
65896;SDS011;52677;50.898;10.854;2023-05-07T03:25:27;49.38;;;23.85;;
65896;SDS011;52677;50.898;10.854;2023-05-07T03:27:27;39.83;;;21.00;;
65896;SDS011;52677;50.898;10.854;2023-05-07T03:29:28;45.55;;;22.42;;
65896;SDS011;52677;50.898;10.854;2023-05-07T03:31:28;45.30;;;21.85;;
65896;SDS011;52677;50.898;10.854;2023-05-07T03:33:29;40.50;;;21.25;;
65896;SDS011;52677;50.898;10.854;2023-05-07T03:35:29;43.05;;;20.33;;
65896;SDS011;52677;50.898;10.854;2023-05-07T03:37:29;49.80;;;22.20;;
65896;SDS011;52677;50.898;10.854;2023-05-07T03:39:30;41.85;;;20.38;;
65896;SDS011;52677;50.898;10.854;2023-05-07T03:41:30;44.58;;;21.88;;
65896;SDS011;52677;50.898;10.854;2023-05-07T03:43:32;40.87;;;20.97;;
65896;SDS011;52677;50.898;10.854;2023-05-07T03:45:32;40.75;;;20.77;;
65896;SDS011;52677;50.898;10.854;2023-05-07T03:47:32;41.78;;;20.95;;
65896;SDS011;52677;50.898;10.854;2023-05-07T03:49:33;41.33;;;21.65;;
65896;SDS011;52677;50.898;10.854;2023-05-07T03:51:33;41.72;;;21.85;;
65896;SDS011;52677;50.898;10.854;2023-05-07T03:53:33;46.45;;;22.63;;
65896;SDS011;52677;50.898;10.854;2023-05-07T03:55:34;41.90;;;21.77;;
65896;SDS011;52677;50.898;10.854;2023-05-07T03:57:35;46.08;;;21.38;;
65896;SDS011;52677;50.898;10.854;2023-05-07T03:59:35;47.78;;;23.85;;
65896;SDS011;52677;50.898;10.854;2023-05-07T04:01:36;40.95;;;22.20;;
65896;SDS011;52677;50.898;10.854;2023-05-07T04:03:36;43.05;;;20.92;;
65896;SDS011;52677;50.898;10.854;2023-05-07T04:05:36;41.80;;;21.40;;
65896;SDS011;52677;50.898;10.854;2023-05-07T04:07:37;34.95;;;19.65;;
65896;SDS011;52677;50.898;10.854;2023-05-07T04:09:37;43.75;;;20.77;;
65896;SDS011;52677;50.898;10.854;2023-05-07T04:11:37;39.40;;;20.20;;
65896;SDS011;52677;50.898;10.854;2023-05-07T04:13:40;39.25;;;19.92;;
65896;SDS011;52677;50.898;10.854;2023-05-07T04:15:40;37.22;;;19.88;;
65896;SDS011;52677;50.898;10.854;2023-05-07T04:17:40;39.42;;;20.45;;
65896;SDS011;52677;50.898;10.854;2023-05-07T04:19:41;40.50;;;20.85;;
65896;SDS011;52677;50.898;10.854;2023-05-07T04:21:45;37.92;;;19.58;;
65896;SDS011;52677;50.898;10.854;2023-05-07T04:23:48;39.60;;;19.25;;
65896;SDS011;52677;50.898;10.854;2023-05-07T04:25:49;41.42;;;19.92;;
65896;SDS011;52677;50.898;10.854;2023-05-07T04:27:50;38.00;;;17.92;;
65896;SDS011;52677;50.898;10.854;2023-05-07T04:29:50;38.50;;;19.20;;
65896;SDS011;52677;50.898;10.854;2023-05-07T04:31:51;34.15;;;18.70;;
65896;SDS011;52677;50.898;10.854;2023-05-07T04:33:51;37.75;;;19.33;;
65896;SDS011;52677;50.898;10.854;2023-05-07T04:35:52;34.17;;;18.20;;
65896;SDS011;52677;50.898;10.854;2023-05-07T04:37:52;38.17;;;19.15;;
65896;SDS011;52677;50.898;10.854;2023-05-07T04:39:52;37.58;;;19.02;;
65896;SDS011;52677;50.898;10.854;2023-05-07T04:41:53;38.85;;;19.35;;
65896;SDS011;52677;50.898;10.854;2023-05-07T04:43:53;33.13;;;18.58;;
65896;SDS011;52677;50.898;10.854;2023-05-07T04:45:53;35.78;;;17.38;;
65896;SDS011;52677;50.898;10.854;2023-05-07T04:47:54;31.88;;;17.30;;
65896;SDS011;52677;50.898;10.854;2023-05-07T04:49:54;35.10;;;18.15;;
65896;SDS011;52677;50.898;10.854;2023-05-07T04:51:55;35.97;;;17.98;;
65896;SDS011;52677;50.898;10.854;2023-05-07T04:53:55;35.58;;;17.35;;
65896;SDS011;52677;50.898;10.854;2023-05-07T04:55:56;35.50;;;18.02;;
65896;SDS011;52677;50.898;10.854;2023-05-07T04:57:57;39.15;;;18.00;;
65896;SDS011;52677;50.898;10.854;2023-05-07T04:59:57;36.00;;;17.98;;
65896;SDS011;52677;50.898;10.854;2023-05-07T05:01:57;35.95;;;19.15;;
65896;SDS011;52677;50.898;10.854;2023-05-07T05:03:58;31.20;;;17.88;;
65896;SDS011;52677;50.898;10.854;2023-05-07T05:06:00;35.00;;;17.60;;
65896;SDS011;52677;50.898;10.854;2023-05-07T05:08:00;34.13;;;17.80;;
65896;SDS011;52677;50.898;10.854;2023-05-07T05:10:01;36.10;;;18.70;;
65896;SDS011;52677;50.898;10.854;2023-05-07T05:12:03;41.25;;;19.80;;
65896;SDS011;52677;50.898;10.854;2023-05-07T05:14:03;34.20;;;17.85;;
65896;SDS011;52677;50.898;10.854;2023-05-07T05:16:04;32.72;;;17.58;;
65896;SDS011;52677;50.898;10.854;2023-05-07T05:18:04;36.08;;;18.48;;
65896;SDS011;52677;50.898;10.854;2023-05-07T05:20:05;37.97;;;18.35;;
65896;SDS011;52677;50.898;10.854;2023-05-07T05:22:06;38.95;;;18.52;;
65896;SDS011;52677;50.898;10.854;2023-05-07T05:24:06;32.88;;;18.17;;
65896;SDS011;52677;50.898;10.854;2023-05-07T05:26:07;36.35;;;17.23;;
65896;SDS011;52677;50.898;10.854;2023-05-07T05:28:07;42.42;;;20.13;;
65896;SDS011;52677;50.898;10.854;2023-05-07T05:30:07;36.05;;;17.80;;
65896;SDS011;52677;50.898;10.854;2023-05-07T05:32:08;36.95;;;17.73;;
65896;SDS011;52677;50.898;10.854;2023-05-07T05:34:08;35.33;;;17.20;;
65896;SDS011;52677;50.898;10.854;2023-05-07T05:36:09;34.28;;;17.67;;
65896;SDS011;52677;50.898;10.854;2023-05-07T05:38:09;32.20;;;16.38;;
65896;SDS011;52677;50.898;10.854;2023-05-07T05:40:10;34.80;;;16.98;;
65896;SDS011;52677;50.898;10.854;2023-05-07T05:42:10;37.92;;;17.08;;
65896;SDS011;52677;50.898;10.854;2023-05-07T05:44:11;33.08;;;16.67;;
65896;SDS011;52677;50.898;10.854;2023-05-07T05:46:11;33.00;;;16.35;;
65896;SDS011;52677;50.898;10.854;2023-05-07T05:48:11;31.58;;;15.85;;
65896;SDS011;52677;50.898;10.854;2023-05-07T05:50:12;31.60;;;15.57;;
65896;SDS011;52677;50.898;10.854;2023-05-07T05:52:12;31.48;;;14.80;;
65896;SDS011;52677;50.898;10.854;2023-05-07T05:54:14;29.17;;;15.07;;
65896;SDS011;52677;50.898;10.854;2023-05-07T05:56:15;30.13;;;15.93;;
65896;SDS011;52677;50.898;10.854;2023-05-07T05:58:16;28.13;;;14.80;;
65896;SDS011;52677;50.898;10.854;2023-05-07T06:00:16;29.88;;;15.50;;
65896;SDS011;52677;50.898;10.854;2023-05-07T06:02:16;32.35;;;15.52;;
65896;SDS011;52677;50.898;10.854;2023-05-07T06:04:17;29.50;;;15.45;;
65896;SDS011;52677;50.898;10.854;2023-05-07T06:06:17;26.73;;;13.93;;
65896;SDS011;52677;50.898;10.854;2023-05-07T06:08:17;25.77;;;13.75;;
65896;SDS011;52677;50.898;10.854;2023-05-07T06:10:18;26.70;;;13.45;;
65896;SDS011;52677;50.898;10.854;2023-05-07T06:12:18;25.02;;;13.75;;
65896;SDS011;52677;50.898;10.854;2023-05-07T06:14:19;25.65;;;13.32;;
65896;SDS011;52677;50.898;10.854;2023-05-07T06:16:19;26.98;;;14.73;;
65896;SDS011;52677;50.898;10.854;2023-05-07T06:18:20;27.20;;;13.60;;
65896;SDS011;52677;50.898;10.854;2023-05-07T06:20:20;22.33;;;12.60;;
65896;SDS011;52677;50.898;10.854;2023-05-07T06:22:20;23.80;;;13.40;;
65896;SDS011;52677;50.898;10.854;2023-05-07T06:24:20;25.15;;;13.43;;
65896;SDS011;52677;50.898;10.854;2023-05-07T06:26:21;27.33;;;13.73;;
65896;SDS011;52677;50.898;10.854;2023-05-07T06:28:21;23.40;;;13.07;;
65896;SDS011;52677;50.898;10.854;2023-05-07T06:30:22;21.45;;;12.32;;
65896;SDS011;52677;50.898;10.854;2023-05-07T06:32:22;24.25;;;13.20;;
65896;SDS011;52677;50.898;10.854;2023-05-07T06:34:22;21.85;;;12.80;;
65896;SDS011;52677;50.898;10.854;2023-05-07T06:36:23;22.17;;;12.40;;
65896;SDS011;52677;50.898;10.854;2023-05-07T06:38:23;24.13;;;13.43;;
65896;SDS011;52677;50.898;10.854;2023-05-07T06:40:23;22.05;;;12.43;;
65896;SDS011;52677;50.898;10.854;2023-05-07T06:42:24;24.63;;;14.15;;
65896;SDS011;52677;50.898;10.854;2023-05-07T06:44:24;26.73;;;14.00;;
65896;SDS011;52677;50.898;10.854;2023-05-07T06:46:25;29.13;;;14.80;;
65896;SDS011;52677;50.898;10.854;2023-05-07T06:48:25;27.80;;;14.93;;
65896;SDS011;52677;50.898;10.854;2023-05-07T06:50:25;27.30;;;15.52;;
65896;SDS011;52677;50.898;10.854;2023-05-07T06:52:26;26.20;;;14.38;;
65896;SDS011;52677;50.898;10.854;2023-05-07T06:54:26;27.27;;;15.30;;
65896;SDS011;52677;50.898;10.854;2023-05-07T06:56:26;29.05;;;15.27;;
65896;SDS011;52677;50.898;10.854;2023-05-07T06:58:27;31.00;;;17.08;;
65896;SDS011;52677;50.898;10.854;2023-05-07T07:00:27;24.77;;;14.10;;
65896;SDS011;52677;50.898;10.854;2023-05-07T07:02:27;28.55;;;15.05;;
65896;SDS011;52677;50.898;10.854;2023-05-07T07:04:27;27.15;;;15.63;;
65896;SDS011;52677;50.898;10.854;2023-05-07T07:06:28;28.95;;;14.60;;
65896;SDS011;52677;50.898;10.854;2023-05-07T07:08:29;27.58;;;14.88;;
65896;SDS011;52677;50.898;10.854;2023-05-07T07:10:30;31.25;;;16.23;;
65896;SDS011;52677;50.898;10.854;2023-05-07T07:12:30;28.55;;;14.90;;
65896;SDS011;52677;50.898;10.854;2023-05-07T07:14:30;26.50;;;14.38;;
65896;SDS011;52677;50.898;10.854;2023-05-07T07:16:31;29.33;;;15.68;;
65896;SDS011;52677;50.898;10.854;2023-05-07T07:18:31;28.02;;;16.55;;
65896;SDS011;52677;50.898;10.854;2023-05-07T07:20:31;27.65;;;15.38;;
65896;SDS011;52677;50.898;10.854;2023-05-07T07:22:32;27.25;;;14.65;;
65896;SDS011;52677;50.898;10.854;2023-05-07T07:24:32;27.17;;;14.95;;
65896;SDS011;52677;50.898;10.854;2023-05-07T07:26:32;25.77;;;15.60;;
65896;SDS011;52677;50.898;10.854;2023-05-07T07:28:33;25.75;;;14.95;;
65896;SDS011;52677;50.898;10.854;2023-05-07T07:30:33;28.33;;;14.88;;
65896;SDS011;52677;50.898;10.854;2023-05-07T07:32:34;27.38;;;13.98;;
65896;SDS011;52677;50.898;10.854;2023-05-07T07:34:34;28.42;;;15.15;;
65896;SDS011;52677;50.898;10.854;2023-05-07T07:36:35;30.30;;;14.80;;
65896;SDS011;52677;50.898;10.854;2023-05-07T07:38:35;32.10;;;14.98;;
65896;SDS011;52677;50.898;10.854;2023-05-07T07:40:35;27.73;;;15.07;;
65896;SDS011;52677;50.898;10.854;2023-05-07T07:42:36;24.98;;;14.05;;
65896;SDS011;52677;50.898;10.854;2023-05-07T07:44:36;29.00;;;13.98;;
65896;SDS011;52677;50.898;10.854;2023-05-07T07:46:36;26.08;;;14.13;;
65896;SDS011;52677;50.898;10.854;2023-05-07T07:48:37;24.88;;;13.75;;
65896;SDS011;52677;50.898;10.854;2023-05-07T07:50:37;28.23;;;13.43;;
65896;SDS011;52677;50.898;10.854;2023-05-07T07:52:38;30.35;;;14.77;;
65896;SDS011;52677;50.898;10.854;2023-05-07T07:54:38;27.77;;;14.38;;
65896;SDS011;52677;50.898;10.854;2023-05-07T07:56:39;26.40;;;13.02;;
65896;SDS011;52677;50.898;10.854;2023-05-07T07:58:39;23.15;;;13.65;;
65896;SDS011;52677;50.898;10.854;2023-05-07T08:00:39;26.15;;;13.13;;
65896;SDS011;52677;50.898;10.854;2023-05-07T08:02:40;24.23;;;12.82;;
65896;SDS011;52677;50.898;10.854;2023-05-07T08:04:40;25.02;;;12.93;;
65896;SDS011;52677;50.898;10.854;2023-05-07T08:06:41;23.83;;;12.18;;
65896;SDS011;52677;50.898;10.854;2023-05-07T08:08:42;24.55;;;12.43;;
65896;SDS011;52677;50.898;10.854;2023-05-07T08:10:42;22.88;;;12.25;;
65896;SDS011;52677;50.898;10.854;2023-05-07T08:12:43;23.38;;;12.05;;
65896;SDS011;52677;50.898;10.854;2023-05-07T08:14:43;24.02;;;12.73;;
65896;SDS011;52677;50.898;10.854;2023-05-07T08:16:43;19.83;;;11.93;;
65896;SDS011;52677;50.898;10.854;2023-05-07T08:18:44;19.52;;;11.23;;
65896;SDS011;52677;50.898;10.854;2023-05-07T08:20:44;23.45;;;11.35;;
65896;SDS011;52677;50.898;10.854;2023-05-07T08:22:45;19.42;;;11.50;;
65896;SDS011;52677;50.898;10.854;2023-05-07T08:24:45;19.60;;;11.30;;
65896;SDS011;52677;50.898;10.854;2023-05-07T08:26:45;18.38;;;10.57;;
65896;SDS011;52677;50.898;10.854;2023-05-07T08:28:46;21.10;;;11.13;;
65896;SDS011;52677;50.898;10.854;2023-05-07T08:30:46;17.15;;;10.57;;
65896;SDS011;52677;50.898;10.854;2023-05-07T08:32:46;17.83;;;11.15;;
65896;SDS011;52677;50.898;10.854;2023-05-07T08:34:47;17.15;;;10.63;;
65896;SDS011;52677;50.898;10.854;2023-05-07T08:36:48;17.88;;;10.77;;
65896;SDS011;52677;50.898;10.854;2023-05-07T08:38:48;20.17;;;11.60;;
65896;SDS011;52677;50.898;10.854;2023-05-07T08:40:49;19.23;;;11.85;;
65896;SDS011;52677;50.898;10.854;2023-05-07T08:42:49;33.90;;;24.35;;
65896;SDS011;52677;50.898;10.854;2023-05-07T08:46:56;48.92;;;29.38;;
65896;SDS011;52677;50.898;10.854;2023-05-07T08:48:56;33.10;;;20.00;;
65896;SDS011;52677;50.898;10.854;2023-05-07T08:50:57;22.42;;;13.30;;
65896;SDS011;52677;50.898;10.854;2023-05-07T08:52:58;19.77;;;11.75;;
65896;SDS011;52677;50.898;10.854;2023-05-07T08:55:00;20.50;;;10.90;;
65896;SDS011;52677;50.898;10.854;2023-05-07T08:59:02;19.70;;;11.32;;
65896;SDS011;52677;50.898;10.854;2023-05-07T09:01:07;19.58;;;10.93;;
65896;SDS011;52677;50.898;10.854;2023-05-07T09:03:08;21.05;;;12.23;;
65896;SDS011;52677;50.898;10.854;2023-05-07T09:05:12;19.08;;;11.68;;
65896;SDS011;52677;50.898;10.854;2023-05-07T09:07:12;17.35;;;10.10;;
65896;SDS011;52677;50.898;10.854;2023-05-07T09:09:19;16.90;;;10.48;;
65896;SDS011;52677;50.898;10.854;2023-05-07T09:11:22;20.10;;;11.82;;
65896;SDS011;52677;50.898;10.854;2023-05-07T09:13:23;20.17;;;11.32;;
65896;SDS011;52677;50.898;10.854;2023-05-07T09:15:23;21.45;;;11.48;;
65896;SDS011;52677;50.898;10.854;2023-05-07T09:17:23;21.02;;;11.57;;
65896;SDS011;52677;50.898;10.854;2023-05-07T09:19:24;18.48;;;11.40;;
65896;SDS011;52677;50.898;10.854;2023-05-07T09:21:25;21.05;;;12.23;;
65896;SDS011;52677;50.898;10.854;2023-05-07T09:23:26;17.35;;;10.38;;
65896;SDS011;52677;50.898;10.854;2023-05-07T09:25:33;19.23;;;11.73;;
65896;SDS011;52677;50.898;10.854;2023-05-07T09:27:34;20.27;;;12.25;;
65896;SDS011;52677;50.898;10.854;2023-05-07T09:29:35;17.90;;;10.65;;
65896;SDS011;52677;50.898;10.854;2023-05-07T09:31:38;17.05;;;10.82;;
65896;SDS011;52677;50.898;10.854;2023-05-07T09:33:38;20.70;;;12.07;;
65896;SDS011;52677;50.898;10.854;2023-05-07T09:35:39;20.58;;;10.80;;
65896;SDS011;52677;50.898;10.854;2023-05-07T09:37:40;17.80;;;10.98;;
65896;SDS011;52677;50.898;10.854;2023-05-07T09:39:50;20.40;;;12.48;;
65896;SDS011;52677;50.898;10.854;2023-05-07T09:41:50;20.88;;;11.70;;
65896;SDS011;52677;50.898;10.854;2023-05-07T09:43:53;19.20;;;12.35;;
65896;SDS011;52677;50.898;10.854;2023-05-07T09:45:55;21.55;;;13.13;;
65896;SDS011;52677;50.898;10.854;2023-05-07T09:47:56;20.00;;;12.10;;
65896;SDS011;52677;50.898;10.854;2023-05-07T09:49:57;22.65;;;11.43;;
65896;SDS011;52677;50.898;10.854;2023-05-07T09:52:05;20.80;;;11.38;;
65896;SDS011;52677;50.898;10.854;2023-05-07T09:54:08;19.98;;;11.23;;
65896;SDS011;52677;50.898;10.854;2023-05-07T09:56:10;18.35;;;11.50;;
65896;SDS011;52677;50.898;10.854;2023-05-07T09:58:12;19.00;;;11.65;;
65896;SDS011;52677;50.898;10.854;2023-05-07T10:00:14;18.17;;;11.07;;
65896;SDS011;52677;50.898;10.854;2023-05-07T10:02:15;22.83;;;11.52;;
65896;SDS011;52677;50.898;10.854;2023-05-07T10:04:19;18.05;;;11.68;;
65896;SDS011;52677;50.898;10.854;2023-05-07T10:06:20;19.42;;;11.38;;
65896;SDS011;52677;50.898;10.854;2023-05-07T10:08:22;18.80;;;11.65;;
65896;SDS011;52677;50.898;10.854;2023-05-07T10:10:22;19.63;;;12.13;;
65896;SDS011;52677;50.898;10.854;2023-05-07T10:12:24;18.15;;;11.23;;
65896;SDS011;52677;50.898;10.854;2023-05-07T10:14:24;18.17;;;11.15;;
65896;SDS011;52677;50.898;10.854;2023-05-07T10:16:25;18.58;;;11.77;;
65896;SDS011;52677;50.898;10.854;2023-05-07T10:18:27;18.77;;;11.70;;
65896;SDS011;52677;50.898;10.854;2023-05-07T10:20:33;21.33;;;12.10;;
65896;SDS011;52677;50.898;10.854;2023-05-07T10:22:43;20.20;;;12.10;;
65896;SDS011;52677;50.898;10.854;2023-05-07T10:24:45;21.73;;;12.40;;
65896;SDS011;52677;50.898;10.854;2023-05-07T10:26:49;19.08;;;11.65;;
65896;SDS011;52677;50.898;10.854;2023-05-07T10:33:50;19.27;;;12.57;;
65896;SDS011;52677;50.898;10.854;2023-05-07T10:35:51;18.13;;;11.20;;
65896;SDS011;52677;50.898;10.854;2023-05-07T10:37:55;18.08;;;11.10;;
65896;SDS011;52677;50.898;10.854;2023-05-07T10:39:56;16.92;;;11.00;;
65896;SDS011;52677;50.898;10.854;2023-05-07T10:42:06;17.88;;;10.70;;
65896;SDS011;52677;50.898;10.854;2023-05-07T10:44:07;18.75;;;10.80;;
65896;SDS011;52677;50.898;10.854;2023-05-07T10:46:18;19.77;;;10.48;;
65896;SDS011;52677;50.898;10.854;2023-05-07T10:48:20;17.88;;;10.80;;
65896;SDS011;52677;50.898;10.854;2023-05-07T10:50:20;15.77;;;9.93;;
65896;SDS011;52677;50.898;10.854;2023-05-07T10:52:21;18.40;;;11.50;;
65896;SDS011;52677;50.898;10.854;2023-05-07T10:54:26;17.70;;;11.25;;
65896;SDS011;52677;50.898;10.854;2023-05-07T10:56:26;18.25;;;11.45;;
65896;SDS011;52677;50.898;10.854;2023-05-07T10:58:27;18.33;;;11.57;;
65896;SDS011;52677;50.898;10.854;2023-05-07T11:05:21;19.15;;;11.95;;
65896;SDS011;52677;50.898;10.854;2023-05-07T11:07:26;17.17;;;10.45;;
65896;SDS011;52677;50.898;10.854;2023-05-07T11:09:53;16.45;;;10.57;;
65896;SDS011;52677;50.898;10.854;2023-05-07T11:13:51;15.27;;;10.35;;
65896;SDS011;52677;50.898;10.854;2023-05-07T11:15:52;18.63;;;11.48;;
65896;SDS011;52677;50.898;10.854;2023-05-07T11:17:53;19.15;;;12.23;;
65896;SDS011;52677;50.898;10.854;2023-05-07T11:19:58;19.38;;;11.80;;
65896;SDS011;52677;50.898;10.854;2023-05-07T11:21:58;18.73;;;11.60;;
65896;SDS011;52677;50.898;10.854;2023-05-07T11:23:59;24.35;;;13.23;;
65896;SDS011;52677;50.898;10.854;2023-05-07T11:26:00;18.92;;;12.88;;
65896;SDS011;52677;50.898;10.854;2023-05-07T11:28:07;20.15;;;12.18;;
65896;SDS011;52677;50.898;10.854;2023-05-07T11:30:16;22.67;;;13.52;;
65896;SDS011;52677;50.898;10.854;2023-05-07T11:32:39;21.63;;;12.93;;
65896;SDS011;52677;50.898;10.854;2023-05-07T11:34:39;18.27;;;11.98;;
65896;SDS011;52677;50.898;10.854;2023-05-07T11:36:41;16.65;;;12.05;;
65896;SDS011;52677;50.898;10.854;2023-05-07T11:38:43;16.83;;;11.52;;
65896;SDS011;52677;50.898;10.854;2023-05-07T11:42:53;16.60;;;11.57;;
65896;SDS011;52677;50.898;10.854;2023-05-07T11:44:53;16.05;;;11.35;;
65896;SDS011;52677;50.898;10.854;2023-05-07T11:46:54;20.58;;;12.45;;
65896;SDS011;52677;50.898;10.854;2023-05-07T11:48:55;17.90;;;11.77;;
65896;SDS011;52677;50.898;10.854;2023-05-07T11:53:07;15.90;;;10.88;;
65896;SDS011;52677;50.898;10.854;2023-05-07T11:55:08;16.63;;;11.27;;
65896;SDS011;52677;50.898;10.854;2023-05-07T11:57:14;18.00;;;11.95;;
65896;SDS011;52677;50.898;10.854;2023-05-07T11:59:18;15.75;;;10.82;;